sensor_id;sensor_type;location;lat;lon;timestamp;temperature;humidity
56771;DHT22;42641;59.794;17.616;2023-04-25T00:00:48;4.30;99.90
56771;DHT22;42641;59.794;17.616;2023-04-25T00:03:15;4.30;99.90
56771;DHT22;42641;59.794;17.616;2023-04-25T00:05:42;4.30;99.90
56771;DHT22;42641;59.794;17.616;2023-04-25T00:08:10;4.20;99.90
56771;DHT22;42641;59.794;17.616;2023-04-25T00:10:36;4.20;99.90
56771;DHT22;42641;59.794;17.616;2023-04-25T00:13:03;4.10;99.90
56771;DHT22;42641;59.794;17.616;2023-04-25T00:15:30;4.10;99.90
56771;DHT22;42641;59.794;17.616;2023-04-25T00:17:57;4.00;99.90
56771;DHT22;42641;59.794;17.616;2023-04-25T00:20:23;4.00;99.90
56771;DHT22;42641;59.794;17.616;2023-04-25T00:22:51;4.10;99.90
56771;DHT22;42641;59.794;17.616;2023-04-25T00:25:19;4.10;99.90
56771;DHT22;42641;59.794;17.616;2023-04-25T00:27:46;4.00;99.90
56771;DHT22;42641;59.794;17.616;2023-04-25T00:30:13;4.00;99.90
56771;DHT22;42641;59.794;17.616;2023-04-25T00:32:40;4.10;99.90
56771;DHT22;42641;59.794;17.616;2023-04-25T00:35:06;4.10;99.90
56771;DHT22;42641;59.794;17.616;2023-04-25T00:37:33;4.10;99.90
56771;DHT22;42641;59.794;17.616;2023-04-25T00:39:59;4.10;99.90
56771;DHT22;42641;59.794;17.616;2023-04-25T00:42:27;4.00;99.90
56771;DHT22;42641;59.794;17.616;2023-04-25T00:44:53;4.00;99.90
56771;DHT22;42641;59.794;17.616;2023-04-25T00:47:20;4.00;99.90
56771;DHT22;42641;59.794;17.616;2023-04-25T00:49:47;4.00;99.90
56771;DHT22;42641;59.794;17.616;2023-04-25T00:52:14;4.00;99.90
56771;DHT22;42641;59.794;17.616;2023-04-25T00:54:40;4.00;99.90
56771;DHT22;42641;59.794;17.616;2023-04-25T00:57:07;4.00;99.90
56771;DHT22;42641;59.794;17.616;2023-04-25T00:59:34;4.00;99.90
56771;DHT22;42641;59.794;17.616;2023-04-25T01:02:02;4.00;99.90
56771;DHT22;42641;59.794;17.616;2023-04-25T01:04:28;3.80;99.90
56771;DHT22;42641;59.794;17.616;2023-04-25T01:06:55;3.80;99.90
56771;DHT22;42641;59.794;17.616;2023-04-25T01:09:22;3.80;99.90
56771;DHT22;42641;59.794;17.616;2023-04-25T01:11:49;3.90;99.90
56771;DHT22;42641;59.794;17.616;2023-04-25T01:14:16;3.90;99.90
56771;DHT22;42641;59.794;17.616;2023-04-25T01:16:43;3.80;99.90
56771;DHT22;42641;59.794;17.616;2023-04-25T01:19:11;3.80;99.90
56771;DHT22;42641;59.794;17.616;2023-04-25T01:21:38;3.90;99.90
56771;DHT22;42641;59.794;17.616;2023-04-25T01:24:05;3.90;99.90
56771;DHT22;42641;59.794;17.616;2023-04-25T01:26:33;3.90;99.90
56771;DHT22;42641;59.794;17.616;2023-04-25T01:29:01;3.70;99.90
56771;DHT22;42641;59.794;17.616;2023-04-25T01:31:28;3.80;99.90
56771;DHT22;42641;59.794;17.616;2023-04-25T01:33:55;3.70;99.90
56771;DHT22;42641;59.794;17.616;2023-04-25T01:36:21;3.70;99.90
56771;DHT22;42641;59.794;17.616;2023-04-25T01:38:48;3.70;99.90
56771;DHT22;42641;59.794;17.616;2023-04-25T01:41:15;3.80;99.90
56771;DHT22;42641;59.794;17.616;2023-04-25T01:43:44;3.70;99.90
56771;DHT22;42641;59.794;17.616;2023-04-25T01:46:12;3.70;99.90
56771;DHT22;42641;59.794;17.616;2023-04-25T01:48:38;3.60;99.90
56771;DHT22;42641;59.794;17.616;2023-04-25T01:51:06;3.60;99.90
56771;DHT22;42641;59.794;17.616;2023-04-25T01:53:33;3.60;99.90
56771;DHT22;42641;59.794;17.616;2023-04-25T01:56:01;3.60;99.90
56771;DHT22;42641;59.794;17.616;2023-04-25T01:58:33;3.60;99.90
56771;DHT22;42641;59.794;17.616;2023-04-25T02:01:14;3.60;99.90
56771;DHT22;42641;59.794;17.616;2023-04-25T02:03:46;3.60;99.90
56771;DHT22;42641;59.794;17.616;2023-04-25T02:06:22;3.50;99.90
56771;DHT22;42641;59.794;17.616;2023-04-25T02:08:51;3.50;99.90
56771;DHT22;42641;59.794;17.616;2023-04-25T02:11:18;3.50;99.90
56771;DHT22;42641;59.794;17.616;2023-04-25T02:13:57;3.40;99.90
56771;DHT22;42641;59.794;17.616;2023-04-25T02:16:42;3.30;99.90
56771;DHT22;42641;59.794;17.616;2023-04-25T02:19:10;3.40;99.90
56771;DHT22;42641;59.794;17.616;2023-04-25T02:21:37;3.30;99.90
56771;DHT22;42641;59.794;17.616;2023-04-25T02:24:04;3.30;99.90
56771;DHT22;42641;59.794;17.616;2023-04-25T02:26:30;3.30;99.90
56771;DHT22;42641;59.794;17.616;2023-04-25T02:28:57;3.30;99.90
56771;DHT22;42641;59.794;17.616;2023-04-25T02:31:23;3.20;99.90
56771;DHT22;42641;59.794;17.616;2023-04-25T02:33:51;3.20;99.90
56771;DHT22;42641;59.794;17.616;2023-04-25T02:36:17;3.20;99.90
56771;DHT22;42641;59.794;17.616;2023-04-25T02:38:44;3.20;99.90
56771;DHT22;42641;59.794;17.616;2023-04-25T02:41:10;3.20;99.90
56771;DHT22;42641;59.794;17.616;2023-04-25T02:43:37;3.20;99.90
56771;DHT22;42641;59.794;17.616;2023-04-25T02:46:03;3.20;99.90
56771;DHT22;42641;59.794;17.616;2023-04-25T02:48:31;3.20;99.90
56771;DHT22;42641;59.794;17.616;2023-04-25T02:50:57;3.20;99.90
56771;DHT22;42641;59.794;17.616;2023-04-25T02:53:23;3.20;99.90
56771;DHT22;42641;59.794;17.616;2023-04-25T02:55:52;3.20;99.90
56771;DHT22;42641;59.794;17.616;2023-04-25T02:58:19;3.20;99.90
56771;DHT22;42641;59.794;17.616;2023-04-25T03:00:48;3.20;99.90
56771;DHT22;42641;59.794;17.616;2023-04-25T03:03:16;3.30;99.90
56771;DHT22;42641;59.794;17.616;2023-04-25T03:05:51;3.30;99.90
56771;DHT22;42641;59.794;17.616;2023-04-25T03:08:23;3.20;99.90
56771;DHT22;42641;59.794;17.616;2023-04-25T03:10:51;3.20;99.90
56771;DHT22;42641;59.794;17.616;2023-04-25T03:13:19;3.20;99.90
56771;DHT22;42641;59.794;17.616;2023-04-25T03:15:46;3.20;99.90
56771;DHT22;42641;59.794;17.616;2023-04-25T03:18:13;3.30;99.90
56771;DHT22;42641;59.794;17.616;2023-04-25T03:20:40;3.30;99.90
56771;DHT22;42641;59.794;17.616;2023-04-25T03:23:08;3.30;99.90
56771;DHT22;42641;59.794;17.616;2023-04-25T03:25:35;3.30;99.90
56771;DHT22;42641;59.794;17.616;2023-04-25T03:28:02;3.30;99.90
56771;DHT22;42641;59.794;17.616;2023-04-25T03:30:28;3.20;99.90
56771;DHT22;42641;59.794;17.616;2023-04-25T03:32:55;3.20;99.90
56771;DHT22;42641;59.794;17.616;2023-04-25T03:35:21;3.20;99.90
56771;DHT22;42641;59.794;17.616;2023-04-25T03:37:49;3.20;99.90
56771;DHT22;42641;59.794;17.616;2023-04-25T03:40:21;3.20;99.90
56771;DHT22;42641;59.794;17.616;2023-04-25T03:43:11;3.20;99.90
56771;DHT22;42641;59.794;17.616;2023-04-25T03:45:41;3.10;99.90
56771;DHT22;42641;59.794;17.616;2023-04-25T03:48:07;3.10;99.90
56771;DHT22;42641;59.794;17.616;2023-04-25T03:50:34;3.00;99.90
56771;DHT22;42641;59.794;17.616;2023-04-25T03:53:00;3.10;99.90
56771;DHT22;42641;59.794;17.616;2023-04-25T03:55:30;3.10;99.90
56771;DHT22;42641;59.794;17.616;2023-04-25T03:57:58;3.10;99.90
56771;DHT22;42641;59.794;17.616;2023-04-25T04:00:25;3.10;99.90
56771;DHT22;42641;59.794;17.616;2023-04-25T04:02:52;3.10;99.90
56771;DHT22;42641;59.794;17.616;2023-04-25T04:05:19;3.10;99.90
56771;DHT22;42641;59.794;17.616;2023-04-25T04:07:52;3.00;99.90
56771;DHT22;42641;59.794;17.616;2023-04-25T04:10:18;3.00;99.90
56771;DHT22;42641;59.794;17.616;2023-04-25T04:12:45;3.10;99.90
56771;DHT22;42641;59.794;17.616;2023-04-25T04:15:12;3.10;99.90
56771;DHT22;42641;59.794;17.616;2023-04-25T04:17:39;3.10;99.90
56771;DHT22;42641;59.794;17.616;2023-04-25T04:20:08;3.10;99.90
56771;DHT22;42641;59.794;17.616;2023-04-25T04:22:35;3.20;99.90
56771;DHT22;42641;59.794;17.616;2023-04-25T04:25:06;3.20;99.90
56771;DHT22;42641;59.794;17.616;2023-04-25T04:27:52;3.30;99.90
56771;DHT22;42641;59.794;17.616;2023-04-25T04:30:42;3.30;99.90
56771;DHT22;42641;59.794;17.616;2023-04-25T04:33:09;3.30;99.90
56771;DHT22;42641;59.794;17.616;2023-04-25T04:35:36;3.40;99.90
56771;DHT22;42641;59.794;17.616;2023-04-25T04:38:02;3.30;99.90
56771;DHT22;42641;59.794;17.616;2023-04-25T04:40:33;3.40;99.90
56771;DHT22;42641;59.794;17.616;2023-04-25T04:43:09;3.40;99.90
56771;DHT22;42641;59.794;17.616;2023-04-25T04:45:38;3.40;99.90
56771;DHT22;42641;59.794;17.616;2023-04-25T04:48:32;3.40;99.90
56771;DHT22;42641;59.794;17.616;2023-04-25T04:51:29;3.30;99.90
56771;DHT22;42641;59.794;17.616;2023-04-25T04:54:07;3.30;99.90
56771;DHT22;42641;59.794;17.616;2023-04-25T04:56:52;3.30;99.90
56771;DHT22;42641;59.794;17.616;2023-04-25T04:59:22;3.40;99.90
56771;DHT22;42641;59.794;17.616;2023-04-25T05:02:07;3.40;99.90
56771;DHT22;42641;59.794;17.616;2023-04-25T05:04:59;3.40;99.90
56771;DHT22;42641;59.794;17.616;2023-04-25T05:07:26;3.50;99.90
56771;DHT22;42641;59.794;17.616;2023-04-25T05:10:28;3.50;99.90
56771;DHT22;42641;59.794;17.616;2023-04-25T05:13:10;3.50;99.90
56771;DHT22;42641;59.794;17.616;2023-04-25T05:16:02;3.50;99.90
56771;DHT22;42641;59.794;17.616;2023-04-25T05:18:49;3.50;99.90
56771;DHT22;42641;59.794;17.616;2023-04-25T05:21:34;3.50;99.90
56771;DHT22;42641;59.794;17.616;2023-04-25T05:24:30;3.50;99.90
56771;DHT22;42641;59.794;17.616;2023-04-25T05:27:16;3.50;99.90
56771;DHT22;42641;59.794;17.616;2023-04-25T05:30:04;3.50;99.90
56771;DHT22;42641;59.794;17.616;2023-04-25T05:32:51;3.60;99.90
56771;DHT22;42641;59.794;17.616;2023-04-25T05:35:18;3.60;99.90
56771;DHT22;42641;59.794;17.616;2023-04-25T05:37:47;3.60;99.90
56771;DHT22;42641;59.794;17.616;2023-04-25T05:40:14;3.60;99.90
56771;DHT22;42641;59.794;17.616;2023-04-25T05:42:44;3.70;99.90
56771;DHT22;42641;59.794;17.616;2023-04-25T05:45:22;3.70;99.90
56771;DHT22;42641;59.794;17.616;2023-04-25T05:48:07;3.70;99.90
56771;DHT22;42641;59.794;17.616;2023-04-25T05:50:53;3.70;99.90
56771;DHT22;42641;59.794;17.616;2023-04-25T05:53:45;3.70;99.90
56771;DHT22;42641;59.794;17.616;2023-04-25T05:56:13;3.70;99.90
56771;DHT22;42641;59.794;17.616;2023-04-25T05:58:40;3.60;99.90
56771;DHT22;42641;59.794;17.616;2023-04-25T06:01:08;3.70;99.90
56771;DHT22;42641;59.794;17.616;2023-04-25T06:03:35;3.80;99.90
56771;DHT22;42641;59.794;17.616;2023-04-25T06:06:01;3.90;99.90
56771;DHT22;42641;59.794;17.616;2023-04-25T06:08:28;3.90;99.90
56771;DHT22;42641;59.794;17.616;2023-04-25T06:10:54;3.90;99.90
56771;DHT22;42641;59.794;17.616;2023-04-25T06:13:22;4.00;99.90
56771;DHT22;42641;59.794;17.616;2023-04-25T06:15:49;3.90;99.90
56771;DHT22;42641;59.794;17.616;2023-04-25T06:18:16;4.00;99.90
56771;DHT22;42641;59.794;17.616;2023-04-25T06:20:42;4.00;99.90
56771;DHT22;42641;59.794;17.616;2023-04-25T06:23:09;3.90;99.90
56771;DHT22;42641;59.794;17.616;2023-04-25T06:25:58;4.00;99.90
56771;DHT22;42641;59.794;17.616;2023-04-25T06:28:26;4.00;99.90
56771;DHT22;42641;59.794;17.616;2023-04-25T06:30:53;4.20;99.90
56771;DHT22;42641;59.794;17.616;2023-04-25T06:33:20;4.20;99.90
56771;DHT22;42641;59.794;17.616;2023-04-25T06:35:48;4.20;99.90
56771;DHT22;42641;59.794;17.616;2023-04-25T06:38:18;4.20;99.90
56771;DHT22;42641;59.794;17.616;2023-04-25T06:40:48;4.20;99.90
56771;DHT22;42641;59.794;17.616;2023-04-25T06:43:14;4.30;99.90
56771;DHT22;42641;59.794;17.616;2023-04-25T06:45:55;4.30;99.90
56771;DHT22;42641;59.794;17.616;2023-04-25T06:48:23;4.20;99.90
56771;DHT22;42641;59.794;17.616;2023-04-25T06:50:50;4.30;99.90
56771;DHT22;42641;59.794;17.616;2023-04-25T06:53:18;4.30;99.90
56771;DHT22;42641;59.794;17.616;2023-04-25T06:55:48;4.20;99.90
56771;DHT22;42641;59.794;17.616;2023-04-25T06:58:20;4.20;99.90
56771;DHT22;42641;59.794;17.616;2023-04-25T07:01:21;4.20;99.90
56771;DHT22;42641;59.794;17.616;2023-04-25T07:03:48;4.30;99.90
56771;DHT22;42641;59.794;17.616;2023-04-25T07:06:18;4.40;99.90
56771;DHT22;42641;59.794;17.616;2023-04-25T07:08:45;4.40;99.90
56771;DHT22;42641;59.794;17.616;2023-04-25T07:11:11;4.40;99.90
56771;DHT22;42641;59.794;17.616;2023-04-25T07:13:37;4.40;99.90
56771;DHT22;42641;59.794;17.616;2023-04-25T07:16:04;4.50;99.90
56771;DHT22;42641;59.794;17.616;2023-04-25T07:18:33;4.50;99.90
56771;DHT22;42641;59.794;17.616;2023-04-25T07:21:00;4.50;99.90
56771;DHT22;42641;59.794;17.616;2023-04-25T07:23:26;4.50;99.90
56771;DHT22;42641;59.794;17.616;2023-04-25T07:25:53;4.60;99.90
56771;DHT22;42641;59.794;17.616;2023-04-25T07:28:22;4.70;99.90
56771;DHT22;42641;59.794;17.616;2023-04-25T07:30:48;4.80;99.90
56771;DHT22;42641;59.794;17.616;2023-04-25T07:33:15;4.80;99.90
56771;DHT22;42641;59.794;17.616;2023-04-25T07:35:41;4.90;99.90
56771;DHT22;42641;59.794;17.616;2023-04-25T07:38:08;5.00;99.90
56771;DHT22;42641;59.794;17.616;2023-04-25T07:40:36;5.20;99.90
56771;DHT22;42641;59.794;17.616;2023-04-25T07:43:06;5.10;99.90
56771;DHT22;42641;59.794;17.616;2023-04-25T07:45:41;5.10;99.90
56771;DHT22;42641;59.794;17.616;2023-04-25T07:48:07;5.10;99.90
56771;DHT22;42641;59.794;17.616;2023-04-25T07:50:37;5.10;99.90
56771;DHT22;42641;59.794;17.616;2023-04-25T07:53:03;5.00;99.90
56771;DHT22;42641;59.794;17.616;2023-04-25T07:55:40;5.10;99.90
56771;DHT22;42641;59.794;17.616;2023-04-25T07:58:15;5.20;99.90
56771;DHT22;42641;59.794;17.616;2023-04-25T08:00:44;5.20;99.90
56771;DHT22;42641;59.794;17.616;2023-04-25T08:03:43;5.20;99.90
56771;DHT22;42641;59.794;17.616;2023-04-25T08:06:16;5.30;99.90
56771;DHT22;42641;59.794;17.616;2023-04-25T08:08:50;5.50;99.90
56771;DHT22;42641;59.794;17.616;2023-04-25T08:11:19;5.60;99.90
56771;DHT22;42641;59.794;17.616;2023-04-25T08:13:46;5.50;99.90
56771;DHT22;42641;59.794;17.616;2023-04-25T08:16:12;5.60;99.90
56771;DHT22;42641;59.794;17.616;2023-04-25T08:18:39;5.60;99.90
56771;DHT22;42641;59.794;17.616;2023-04-25T08:21:05;5.70;99.90
56771;DHT22;42641;59.794;17.616;2023-04-25T08:23:32;5.80;99.90
56771;DHT22;42641;59.794;17.616;2023-04-25T08:26:03;5.90;99.90
56771;DHT22;42641;59.794;17.616;2023-04-25T08:28:33;6.00;99.90
56771;DHT22;42641;59.794;17.616;2023-04-25T08:31:01;6.10;99.90
56771;DHT22;42641;59.794;17.616;2023-04-25T08:33:34;6.20;99.90
56771;DHT22;42641;59.794;17.616;2023-04-25T08:36:11;6.30;99.90
56771;DHT22;42641;59.794;17.616;2023-04-25T08:38:37;6.30;99.90
56771;DHT22;42641;59.794;17.616;2023-04-25T08:41:06;6.40;99.90
56771;DHT22;42641;59.794;17.616;2023-04-25T08:43:34;6.50;99.90
56771;DHT22;42641;59.794;17.616;2023-04-25T08:46:01;6.60;99.90
56771;DHT22;42641;59.794;17.616;2023-04-25T08:48:40;6.60;99.90
56771;DHT22;42641;59.794;17.616;2023-04-25T08:51:10;6.60;99.90
56771;DHT22;42641;59.794;17.616;2023-04-25T08:53:41;6.60;99.90
56771;DHT22;42641;59.794;17.616;2023-04-25T08:56:10;6.60;99.90
56771;DHT22;42641;59.794;17.616;2023-04-25T08:58:39;6.60;99.90
56771;DHT22;42641;59.794;17.616;2023-04-25T09:01:06;6.70;99.90
56771;DHT22;42641;59.794;17.616;2023-04-25T09:03:40;6.80;99.90
56771;DHT22;42641;59.794;17.616;2023-04-25T09:06:10;6.90;99.90
56771;DHT22;42641;59.794;17.616;2023-04-25T09:08:37;6.90;99.90
56771;DHT22;42641;59.794;17.616;2023-04-25T09:11:09;6.90;99.90
56771;DHT22;42641;59.794;17.616;2023-04-25T09:13:36;6.90;99.90
56771;DHT22;42641;59.794;17.616;2023-04-25T09:16:19;6.90;99.90
56771;DHT22;42641;59.794;17.616;2023-04-25T09:19:33;7.00;99.90
56771;DHT22;42641;59.794;17.616;2023-04-25T09:22:03;7.00;99.90
56771;DHT22;42641;59.794;17.616;2023-04-25T09:24:41;7.00;99.90
56771;DHT22;42641;59.794;17.616;2023-04-25T09:27:12;7.10;99.90
56771;DHT22;42641;59.794;17.616;2023-04-25T09:29:41;7.20;99.90
56771;DHT22;42641;59.794;17.616;2023-04-25T09:34:43;7.30;99.90
56771;DHT22;42641;59.794;17.616;2023-04-25T09:37:12;7.30;99.90
56771;DHT22;42641;59.794;17.616;2023-04-25T09:40:00;7.30;99.90
56771;DHT22;42641;59.794;17.616;2023-04-25T09:42:30;7.50;99.90
56771;DHT22;42641;59.794;17.616;2023-04-25T09:44:58;7.60;99.90
56771;DHT22;42641;59.794;17.616;2023-04-25T09:47:26;7.70;99.90
56771;DHT22;42641;59.794;17.616;2023-04-25T09:49:54;7.80;99.90
56771;DHT22;42641;59.794;17.616;2023-04-25T09:52:23;8.00;99.90
56771;DHT22;42641;59.794;17.616;2023-04-25T09:55:00;8.10;99.90
56771;DHT22;42641;59.794;17.616;2023-04-25T09:57:33;8.20;99.90
56771;DHT22;42641;59.794;17.616;2023-04-25T10:00:01;8.30;99.90
56771;DHT22;42641;59.794;17.616;2023-04-25T10:02:42;8.40;99.90
56771;DHT22;42641;59.794;17.616;2023-04-25T10:05:18;8.70;99.90
56771;DHT22;42641;59.794;17.616;2023-04-25T10:07:44;8.90;99.90
56771;DHT22;42641;59.794;17.616;2023-04-25T10:10:16;9.10;99.90
56771;DHT22;42641;59.794;17.616;2023-04-25T10:12:46;9.30;99.90
56771;DHT22;42641;59.794;17.616;2023-04-25T10:15:13;9.30;99.90
56771;DHT22;42641;59.794;17.616;2023-04-25T10:17:41;9.30;99.90
56771;DHT22;42641;59.794;17.616;2023-04-25T10:20:08;9.30;99.90
56771;DHT22;42641;59.794;17.616;2023-04-25T10:22:45;9.10;99.90
56771;DHT22;42641;59.794;17.616;2023-04-25T10:25:12;9.10;99.90
56771;DHT22;42641;59.794;17.616;2023-04-25T10:27:39;8.90;99.90
56771;DHT22;42641;59.794;17.616;2023-04-25T10:30:11;8.90;99.90
56771;DHT22;42641;59.794;17.616;2023-04-25T10:32:44;8.90;99.90
56771;DHT22;42641;59.794;17.616;2023-04-25T10:35:13;8.90;99.90
56771;DHT22;42641;59.794;17.616;2023-04-25T10:40:27;8.50;99.90
56771;DHT22;42641;59.794;17.616;2023-04-25T10:42:54;8.50;99.90
56771;DHT22;42641;59.794;17.616;2023-04-25T10:45:21;8.50;99.90
56771;DHT22;42641;59.794;17.616;2023-04-25T10:47:48;8.40;99.90
56771;DHT22;42641;59.794;17.616;2023-04-25T10:50:15;8.40;99.90
56771;DHT22;42641;59.794;17.616;2023-04-25T10:52:45;8.40;99.90
56771;DHT22;42641;59.794;17.616;2023-04-25T10:55:12;8.50;99.90
56771;DHT22;42641;59.794;17.616;2023-04-25T10:57:43;8.50;99.90
56771;DHT22;42641;59.794;17.616;2023-04-25T11:00:20;8.50;99.90
56771;DHT22;42641;59.794;17.616;2023-04-25T11:02:58;8.50;99.90
56771;DHT22;42641;59.794;17.616;2023-04-25T11:05:35;8.60;99.90
56771;DHT22;42641;59.794;17.616;2023-04-25T11:08:11;8.80;99.90
56771;DHT22;42641;59.794;17.616;2023-04-25T11:10:40;8.90;99.90
56771;DHT22;42641;59.794;17.616;2023-04-25T11:13:06;9.00;99.90
56771;DHT22;42641;59.794;17.616;2023-04-25T11:15:32;9.10;99.90
56771;DHT22;42641;59.794;17.616;2023-04-25T11:17:59;9.20;99.90
56771;DHT22;42641;59.794;17.616;2023-04-25T11:20:26;9.10;99.90
56771;DHT22;42641;59.794;17.616;2023-04-25T11:22:57;9.10;99.90
56771;DHT22;42641;59.794;17.616;2023-04-25T11:25:25;9.20;99.90
56771;DHT22;42641;59.794;17.616;2023-04-25T11:27:53;9.30;99.90
56771;DHT22;42641;59.794;17.616;2023-04-25T11:30:20;9.30;99.90
56771;DHT22;42641;59.794;17.616;2023-04-25T11:32:47;9.40;99.90
56771;DHT22;42641;59.794;17.616;2023-04-25T11:35:14;9.50;99.90
56771;DHT22;42641;59.794;17.616;2023-04-25T11:37:42;9.60;99.90
56771;DHT22;42641;59.794;17.616;2023-04-25T11:40:09;9.60;99.90
56771;DHT22;42641;59.794;17.616;2023-04-25T11:42:43;9.50;99.90
56771;DHT22;42641;59.794;17.616;2023-04-25T11:45:11;9.60;99.90
56771;DHT22;42641;59.794;17.616;2023-04-25T11:47:37;9.60;99.90
56771;DHT22;42641;59.794;17.616;2023-04-25T11:50:06;9.80;99.90
56771;DHT22;42641;59.794;17.616;2023-04-25T11:52:37;9.90;99.90
56771;DHT22;42641;59.794;17.616;2023-04-25T11:55:08;10.00;99.90
56771;DHT22;42641;59.794;17.616;2023-04-25T11:57:37;10.00;99.90
56771;DHT22;42641;59.794;17.616;2023-04-25T12:00:15;10.20;99.90
56771;DHT22;42641;59.794;17.616;2023-04-25T12:02:44;10.30;99.90
56771;DHT22;42641;59.794;17.616;2023-04-25T12:05:12;10.20;99.90
56771;DHT22;42641;59.794;17.616;2023-04-25T12:07:39;10.10;99.90
56771;DHT22;42641;59.794;17.616;2023-04-25T12:10:07;10.10;99.90
56771;DHT22;42641;59.794;17.616;2023-04-25T12:12:35;10.10;99.90
56771;DHT22;42641;59.794;17.616;2023-04-25T12:15:25;10.20;99.90
56771;DHT22;42641;59.794;17.616;2023-04-25T12:17:53;10.30;99.90
56771;DHT22;42641;59.794;17.616;2023-04-25T12:20:26;10.40;99.90
56771;DHT22;42641;59.794;17.616;2023-04-25T12:22:53;10.40;99.90
56771;DHT22;42641;59.794;17.616;2023-04-25T12:28:16;10.40;99.90
56771;DHT22;42641;59.794;17.616;2023-04-25T12:30:58;10.30;99.90
56771;DHT22;42641;59.794;17.616;2023-04-25T12:33:27;10.30;99.90
56771;DHT22;42641;59.794;17.616;2023-04-25T12:35:54;10.20;99.90
56771;DHT22;42641;59.794;17.616;2023-04-25T12:38:25;10.30;99.90
56771;DHT22;42641;59.794;17.616;2023-04-25T12:40:53;10.30;99.90
56771;DHT22;42641;59.794;17.616;2023-04-25T12:43:20;10.20;99.90
56771;DHT22;42641;59.794;17.616;2023-04-25T12:45:52;10.30;99.90
56771;DHT22;42641;59.794;17.616;2023-04-25T12:48:19;10.20;99.90
56771;DHT22;42641;59.794;17.616;2023-04-25T12:50:46;10.00;99.90
56771;DHT22;42641;59.794;17.616;2023-04-25T12:53:19;9.90;99.90
56771;DHT22;42641;59.794;17.616;2023-04-25T12:55:46;9.90;99.90
56771;DHT22;42641;59.794;17.616;2023-04-25T12:58:13;10.10;99.90
56771;DHT22;42641;59.794;17.616;2023-04-25T13:00:40;10.30;99.90
56771;DHT22;42641;59.794;17.616;2023-04-25T13:03:07;10.40;99.90
56771;DHT22;42641;59.794;17.616;2023-04-25T13:05:33;10.50;99.90
56771;DHT22;42641;59.794;17.616;2023-04-25T13:08:00;10.50;99.90
56771;DHT22;42641;59.794;17.616;2023-04-25T13:10:26;10.60;99.90
56771;DHT22;42641;59.794;17.616;2023-04-25T13:12:53;10.70;99.90
56771;DHT22;42641;59.794;17.616;2023-04-25T13:15:19;10.70;99.90
56771;DHT22;42641;59.794;17.616;2023-04-25T13:17:46;10.70;99.90
56771;DHT22;42641;59.794;17.616;2023-04-25T13:20:12;10.60;99.90
56771;DHT22;42641;59.794;17.616;2023-04-25T13:22:41;10.60;99.90
56771;DHT22;42641;59.794;17.616;2023-04-25T13:25:08;10.50;99.90
56771;DHT22;42641;59.794;17.616;2023-04-25T13:27:35;10.50;99.90
56771;DHT22;42641;59.794;17.616;2023-04-25T13:30:05;10.40;99.90
56771;DHT22;42641;59.794;17.616;2023-04-25T13:32:36;10.30;99.90
56771;DHT22;42641;59.794;17.616;2023-04-25T13:35:09;10.20;99.90
56771;DHT22;42641;59.794;17.616;2023-04-25T13:37:36;10.10;99.90
56771;DHT22;42641;59.794;17.616;2023-04-25T13:40:04;10.00;99.90
56771;DHT22;42641;59.794;17.616;2023-04-25T13:42:32;9.90;99.90
56771;DHT22;42641;59.794;17.616;2023-04-25T13:44:58;9.80;99.90
56771;DHT22;42641;59.794;17.616;2023-04-25T13:47:25;9.90;99.90
56771;DHT22;42641;59.794;17.616;2023-04-25T13:49:52;10.00;99.90
56771;DHT22;42641;59.794;17.616;2023-04-25T13:52:18;10.00;99.90
56771;DHT22;42641;59.794;17.616;2023-04-25T13:54:45;10.00;99.90
56771;DHT22;42641;59.794;17.616;2023-04-25T13:57:11;10.00;99.90
56771;DHT22;42641;59.794;17.616;2023-04-25T13:59:38;10.00;99.90
56771;DHT22;42641;59.794;17.616;2023-04-25T14:02:06;10.10;99.90
56771;DHT22;42641;59.794;17.616;2023-04-25T14:04:33;10.00;99.90
56771;DHT22;42641;59.794;17.616;2023-04-25T14:07:00;10.00;99.90
56771;DHT22;42641;59.794;17.616;2023-04-25T14:09:28;10.10;99.90
56771;DHT22;42641;59.794;17.616;2023-04-25T14:11:55;10.20;99.90
56771;DHT22;42641;59.794;17.616;2023-04-25T14:14:22;10.20;99.90
56771;DHT22;42641;59.794;17.616;2023-04-25T14:16:50;10.20;99.90
56771;DHT22;42641;59.794;17.616;2023-04-25T14:19:18;10.10;99.90
56771;DHT22;42641;59.794;17.616;2023-04-25T14:21:44;10.10;99.90
56771;DHT22;42641;59.794;17.616;2023-04-25T14:24:13;10.20;99.90
56771;DHT22;42641;59.794;17.616;2023-04-25T14:26:40;10.30;99.90
56771;DHT22;42641;59.794;17.616;2023-04-25T14:29:07;10.30;99.90
56771;DHT22;42641;59.794;17.616;2023-04-25T14:31:35;10.40;99.90
56771;DHT22;42641;59.794;17.616;2023-04-25T14:34:02;10.40;99.90
56771;DHT22;42641;59.794;17.616;2023-04-25T14:36:29;10.40;99.90
56771;DHT22;42641;59.794;17.616;2023-04-25T14:38:57;10.50;99.90
56771;DHT22;42641;59.794;17.616;2023-04-25T14:41:24;10.50;99.90
56771;DHT22;42641;59.794;17.616;2023-04-25T14:43:51;10.50;99.90
56771;DHT22;42641;59.794;17.616;2023-04-25T14:46:17;10.60;99.90
56771;DHT22;42641;59.794;17.616;2023-04-25T14:48:44;10.40;99.90
56771;DHT22;42641;59.794;17.616;2023-04-25T14:51:11;10.40;99.90
56771;DHT22;42641;59.794;17.616;2023-04-25T14:53:40;10.40;99.90
56771;DHT22;42641;59.794;17.616;2023-04-25T14:56:07;10.40;99.90
56771;DHT22;42641;59.794;17.616;2023-04-25T14:58:33;10.40;99.90
56771;DHT22;42641;59.794;17.616;2023-04-25T15:01:00;10.40;99.90
56771;DHT22;42641;59.794;17.616;2023-04-25T15:03:27;10.40;99.90
56771;DHT22;42641;59.794;17.616;2023-04-25T15:05:55;10.40;99.90
56771;DHT22;42641;59.794;17.616;2023-04-25T15:08:21;10.40;99.90
56771;DHT22;42641;59.794;17.616;2023-04-25T15:10:48;10.40;99.90
56771;DHT22;42641;59.794;17.616;2023-04-25T15:13:14;10.40;99.90
56771;DHT22;42641;59.794;17.616;2023-04-25T15:15:41;10.30;99.90
56771;DHT22;42641;59.794;17.616;2023-04-25T15:18:08;10.30;99.90
56771;DHT22;42641;59.794;17.616;2023-04-25T15:20:34;10.30;99.90
56771;DHT22;42641;59.794;17.616;2023-04-25T15:23:01;10.30;99.90
56771;DHT22;42641;59.794;17.616;2023-04-25T15:25:29;10.30;99.90
56771;DHT22;42641;59.794;17.616;2023-04-25T15:27:55;10.30;99.90
56771;DHT22;42641;59.794;17.616;2023-04-25T15:30:22;10.30;99.90
56771;DHT22;42641;59.794;17.616;2023-04-25T15:32:48;10.40;99.90
56771;DHT22;42641;59.794;17.616;2023-04-25T15:35:15;10.30;99.90
56771;DHT22;42641;59.794;17.616;2023-04-25T15:37:41;10.30;99.90
56771;DHT22;42641;59.794;17.616;2023-04-25T15:40:09;10.30;99.90
56771;DHT22;42641;59.794;17.616;2023-04-25T15:42:46;10.20;99.90
56771;DHT22;42641;59.794;17.616;2023-04-25T15:45:14;10.10;99.90
56771;DHT22;42641;59.794;17.616;2023-04-25T15:47:41;10.10;99.90
56771;DHT22;42641;59.794;17.616;2023-04-25T15:50:08;10.10;99.90
56771;DHT22;42641;59.794;17.616;2023-04-25T15:52:36;10.00;99.90